Canoas Airport
SBCO : rendu visible

Aérodrome :











RETROUVEZ-NOUS SUR...

 
LOGIN :

S'inscrire | Disclaimer

   EN    FR    IT 

 









Légende :    VFR   VFR Marginal   IFR   IFR Intensif   IFR Très Intensif
Visi : 
Plafond : 
>= 8 km
>= 3000ft
5 à 8 km
1000 à 3000 ft
1500m à 5 km
500 à 1000 ft
800 à 1500m
200 à 500 ft
< 800m
< 200 ft
Symboles :   Orages  Brouillard  Fortes neiges  Fortes précipitations  Vent > 20 kt






- Altitude de l'aérodrome : 26 ft
- Code IATA : QNS


SBCO - Canoas

DERNIER METAR :
  • 221300Z 10011KT 080V140 CAVOK 15/07 Q1027

METARs EXPIRÉS :
  • 221200Z 11010KT CAVOK 13/08 Q1027

TAF TAF SBCO
Valide du 22 à 12h jusqu'au 23 à 00h UTC


220900Z 2212/2224 12008KT 8000 BKN012 BKN045 TX19/2216Z TN13/2223Z
BECMG 2213/2215 CAVOK
BECMG 2221/2223 14008KT 8000 SCT020 RMK PEQ
FIR SBCW / Amérique du Sud



MET'MAP, la Météo Aéronautique d'un coup d'oeil ! - Copyright ORBIFLY Décembre 2007 - Disclaimer

ORBIFLY MET'MAP TEAM :

Programmation & Développement : Alexandra Zaïnal
Sur une idée originale de : Baudouin d'Aumeries
Assistance à la programmation : Marc-Olivier Méhu
Soutien technique & logistique : Manuel Goepfert

Contact : metmap@orbifly.com




SOURCES & CREDITS :

   NOAA       Earth
Advisory